Accueil
METAR-TAF:

METAR-TAF

Aéroports :

Cedar City, Utah, États-Unis

latitude: 37-42-24N, longitude: 113-05-48W, altitude: 1715 m

Observation

Le bulletin a été fait il y a 20 minutes, à 02:53 UTC
Vent 7 kt de sud-est
Température 4°C
Humidité 70%
Pression 1021 hPa
Visibilité: 16.1 km
Nuages épars à une hauteur de 5500 ft

METAR: KCDC 270253Z AUTO 14007KT 10SM SCT055 04/M01 A3016 RMK AO2 SLP208 T00391006 53013

Heure: 21:13 (03:13 UTC)

Prévision

Le bulletin a été fait il y a 3 heures et 34 minutes, à 23:39 UTC
Prévision valable du 27 à 00 UTC au 27 à 24 UTC
Vent 6 kt de nord/nord-est
Visibilité: 10 km
Quelques nuages à une hauteur de 5000 ft
A partir de 27 à 0300 UTC
Vent 4 kt de direction variable
Visibilité: 10 km
Ciel clair
A partir de 27 à 1800 UTC
Vent 9 kt de nord
Visibilité: 10 km
Ciel clair

TAF: KCDC 262339Z 2700/2724 03006KT P6SM FEW050 FM270300 VRB04KT P6SM SKC FM271800 35009KT P6SM SKC

Observations et prévisions météorologiques de plus de 4000 aéroports (messages METAR et TAF).

Les stations disponibles sont représentées par des disques jaunes et rouges sur la carte.

Passer la souris dessus pour voir le nom de la station.

Cliquer dessus pour voir les observations et prévisions météorologiques.

Pour changer de carte: cliquez sur les boutons verts avec une croix noire pour zoomer, sur le bouton vert avec un tiret pour effectuer un zoom arrière, ou sur les flèches vertes pour les cartes adjacentes.


METAR-TAF: